Time;durP1;ratioP1;P1;durP2;ratioP2;P2;SDS_P1;SDS_P2;PMS_P1;PMS_P2;Temp;Humidity;BMP_temperature;BMP_pressure;BME280_temperature;BME280_humidity;BME280_pressure;Samples;Min_cycle;Max_cycle;Signal;HPM_P1;HPM_P2
2023/04/17 00:01:49;;;;;;;6.13;4.60;;;21.20;41.00;;;;;;5050315;28;20057;-55
2023/04/17 00:04:15;;;;;;;4.90;4.00;;;21.20;41.00;;;;;;5048942;28;20048;-52
2023/04/17 00:06:44;;;;;;;5.95;4.82;;;21.20;41.10;;;;;;5048591;28;20017;-50
2023/04/17 00:09:13;;;;;;;5.93;4.45;;;21.20;41.00;;;;;;5046312;28;20033;-53
2023/04/17 00:11:39;;;;;;;5.32;4.10;;;21.20;41.00;;;;;;5046208;28;20072;-53
2023/04/17 00:14:05;;;;;;;4.97;4.20;;;21.20;40.90;;;;;;5045131;28;20107;-51
2023/04/17 00:16:31;;;;;;;6.30;4.90;;;21.20;40.90;;;;;;5042591;28;20468;-55
2023/04/17 00:18:57;;;;;;;7.10;5.28;;;21.20;40.90;;;;;;5053500;28;20060;-53
2023/04/17 00:21:23;;;;;;;5.82;4.68;;;21.20;40.90;;;;;;5057155;28;20076;-54
2023/04/17 00:23:49;;;;;;;6.63;4.78;;;21.20;40.80;;;;;;5055668;28;20049;-52
2023/04/17 00:26:15;;;;;;;6.60;4.70;;;21.20;40.80;;;;;;5055629;28;20027;-50
2023/04/17 00:28:42;;;;;;;5.38;4.55;;;21.20;40.80;;;;;;5054391;28;20017;-53
2023/04/17 00:31:08;;;;;;;6.80;5.20;;;21.20;40.80;;;;;;5053830;28;20512;-53
2023/04/17 00:33:34;;;;;;;7.75;5.10;;;21.20;40.70;;;;;;5053864;28;20120;-53
2023/04/17 00:36:00;;;;;;;6.13;4.68;;;21.20;40.70;;;;;;5055598;28;20021;-52
2023/04/17 00:38:25;;;;;;;6.15;4.68;;;21.20;40.70;;;;;;5054444;28;20067;-50
2023/04/17 00:40:51;;;;;;;5.75;4.88;;;21.20;40.70;;;;;;5055068;28;20082;-53
2023/04/17 00:43:17;;;;;;;6.82;4.75;;;21.20;40.70;;;;;;5055385;28;20124;-52
2023/04/17 00:45:46;;;;;;;5.97;4.63;;;21.20;40.70;;;;;;5056561;28;20136;-55
2023/04/17 00:48:14;;;;;;;6.53;4.40;;;21.20;40.70;;;;;;5054687;28;20036;-52
2023/04/17 00:50:42;;;;;;;6.45;5.00;;;21.20;40.60;;;;;;5060365;28;20021;-56
2023/04/17 00:53:08;;;;;;;6.22;4.53;;;21.20;40.60;;;;;;5044874;28;20106;-52
2023/04/17 00:55:36;;;;;;;5.88;4.88;;;21.20;40.60;;;;;;5044193;28;20037;-55
2023/04/17 00:58:04;;;;;;;5.72;4.80;;;21.20;40.60;;;;;;5050710;28;20460;-53
2023/04/17 01:00:30;;;;;;;5.85;4.60;;;21.20;40.60;;;;;;5048088;28;20035;-48
2023/04/17 01:02:57;;;;;;;6.13;4.78;;;21.20;40.60;;;;;;5027815;28;20375;-52
2023/04/17 01:05:24;;;;;;;6.10;4.80;;;21.20;40.60;;;;;;5043491;28;20108;-49
2023/04/17 01:07:50;;;;;;;6.15;5.30;;;21.20;40.60;;;;;;5047687;28;20025;-49
2023/04/17 01:10:17;;;;;;;6.97;5.03;;;21.20;40.60;;;;;;5051080;28;20029;-50
2023/04/17 01:12:45;;;;;;;6.10;4.68;;;21.20;40.50;;;;;;5052044;28;20037;-52
2023/04/17 01:15:11;;;;;;;6.78;5.60;;;21.20;40.50;;;;;;5047658;28;20031;-51
2023/04/17 01:17:37;;;;;;;7.18;5.05;;;21.20;40.50;;;;;;5050519;28;20048;-51
2023/04/17 01:20:09;;;;;;;7.88;5.18;;;21.20;40.50;;;;;;5044270;28;20029;-52
2023/04/17 01:22:36;;;;;;;6.80;5.00;;;21.20;40.50;;;;;;5041687;28;20025;-51
2023/04/17 01:25:02;;;;;;;6.38;4.88;;;21.20;40.40;;;;;;5060185;28;20091;-52
2023/04/17 01:27:34;;;;;;;7.07;5.07;;;21.20;40.40;;;;;;5047577;28;20021;-50
2023/04/17 01:30:00;;;;;;;5.72;4.90;;;21.20;40.40;;;;;;5045932;28;20041;-56
2023/04/17 01:32:26;;;;;;;6.53;4.82;;;21.20;40.40;;;;;;5073697;28;20036;-50
2023/04/17 01:34:52;;;;;;;5.93;4.88;;;21.20;40.40;;;;;;5046861;28;20025;-52
2023/04/17 01:37:18;;;;;;;6.80;5.10;;;21.20;40.40;;;;;;5046518;28;20445;-48
2023/04/17 01:39:44;;;;;;;6.60;5.20;;;21.20;40.40;;;;;;5046822;28;20037;-52
2023/04/17 01:42:10;;;;;;;6.93;4.97;;;21.20;40.40;;;;;;5046123;28;20032;-55
2023/04/17 01:44:36;;;;;;;5.82;4.88;;;21.20;40.40;;;;;;5046726;28;20097;-53
2023/04/17 01:47:03;;;;;;;8.38;5.40;;;21.20;40.40;;;;;;5049637;28;20033;-53
2023/04/17 01:49:29;;;;;;;7.00;5.20;;;21.10;40.30;;;;;;5042709;28;20352;-53
2023/04/17 01:51:54;;;;;;;6.50;4.80;;;21.10;40.30;;;;;;5047150;28;20361;-52
2023/04/17 01:54:21;;;;;;;6.45;4.90;;;21.10;40.40;;;;;;5042647;28;20034;-52
2023/04/17 01:56:47;;;;;;;6.80;5.10;;;21.10;40.30;;;;;;5044684;28;20013;-53
2023/04/17 01:59:12;;;;;;;7.20;5.60;;;21.10;40.30;;;;;;5040928;28;20044;-51
2023/04/17 02:01:38;;;;;;;5.78;5.13;;;21.10;40.30;;;;;;5041018;28;20061;-54
2023/04/17 02:04:04;;;;;;;7.32;5.40;;;21.10;40.30;;;;;;5046248;28;20021;-49
2023/04/17 02:06:31;;;;;;;8.18;5.53;;;21.10;40.30;;;;;;5045463;28;20039;-54
2023/04/17 02:08:58;;;;;;;6.88;5.32;;;21.10;40.30;;;;;;5047578;28;20145;-55
2023/04/17 02:11:25;;;;;;;7.20;5.47;;;21.10;40.30;;;;;;5052154;28;20511;-50
2023/04/17 02:13:51;;;;;;;7.65;5.53;;;21.10;40.30;;;;;;5038943;28;20050;-52
2023/04/17 02:16:20;;;;;;;7.10;5.53;;;21.10;40.30;;;;;;5029524;28;20033;-55
2023/04/17 02:18:47;;;;;;;7.13;5.80;;;21.10;40.30;;;;;;5061119;28;20102;-52
2023/04/17 02:21:13;;;;;;;7.88;5.95;;;21.10;40.40;;;;;;5053907;28;20041;-52
2023/04/17 02:23:38;;;;;;;6.78;5.65;;;21.10;40.30;;;;;;5042180;28;20021;-51
2023/04/17 02:26:04;;;;;;;6.95;5.80;;;21.10;40.40;;;;;;5043594;28;20040;-54
2023/04/17 02:28:30;;;;;;;6.10;4.75;;;21.10;40.40;;;;;;5041812;28;20490;-53
2023/04/17 02:31:00;;;;;;;5.97;5.05;;;21.10;40.50;;;;;;5042782;28;20052;-52
2023/04/17 02:33:26;;;;;;;7.18;5.20;;;21.10;40.60;;;;;;5041803;28;20437;-55
2023/04/17 02:35:52;;;;;;;5.50;4.68;;;21.10;40.60;;;;;;5044900;28;20025;-54
2023/04/17 02:38:23;;;;;;;6.13;5.25;;;21.10;40.60;;;;;;5046808;28;20039;-55
2023/04/17 02:40:49;;;;;;;6.60;5.10;;;21.10;40.60;;;;;;5029481;28;20025;-51
2023/04/17 02:43:16;;;;;;;6.30;5.00;;;21.10;40.60;;;;;;5048959;28;20035;-54
2023/04/17 02:45:41;;;;;;;7.13;5.47;;;21.10;40.60;;;;;;5044203;28;20704;-54
2023/04/17 02:48:08;;;;;;;6.03;5.20;;;21.10;40.50;;;;;;5047218;28;20036;-56
2023/04/17 02:50:33;;;;;;;6.80;5.38;;;21.10;40.50;;;;;;5043698;28;20025;-56
2023/04/17 02:53:10;;;;;;;6.20;4.82;;;21.10;40.50;;;;;;5043704;28;20039;-56
2023/04/17 02:55:36;;;;;;;5.65;4.95;;;21.10;40.40;;;;;;5045102;28;20090;-57
2023/04/17 02:58:02;;;;;;;5.53;4.60;;;21.10;40.40;;;;;;5042210;28;20033;-52
2023/04/17 03:00:28;;;;;;;5.85;4.70;;;21.10;40.40;;;;;;5044363;28;20021;-51
2023/04/17 03:02:54;;;;;;;6.85;5.20;;;21.10;40.50;;;;;;5040359;28;20025;-51
2023/04/17 03:05:22;;;;;;;5.82;4.90;;;21.10;40.40;;;;;;5040636;28;20104;-53
2023/04/17 03:07:49;;;;;;;5.82;4.47;;;21.10;40.30;;;;;;5071695;28;20033;-55
2023/04/17 03:10:15;;;;;;;4.90;4.30;;;21.10;40.30;;;;;;5040199;28;20341;-50
2023/04/17 03:12:43;;;;;;;5.18;4.30;;;21.00;40.30;;;;;;5043779;28;20029;-53
2023/04/17 03:15:09;;;;;;;5.55;4.60;;;21.10;40.30;;;;;;5047174;28;20487;-56
2023/04/17 03:17:35;;;;;;;5.20;4.50;;;21.10;40.90;;;;;;5048505;28;20364;-52
2023/04/17 03:20:02;;;;;;;5.97;4.70;;;21.00;40.20;;;;;;5048656;28;20021;-56
2023/04/17 03:22:28;;;;;;;5.25;4.35;;;21.00;40.20;;;;;;5039412;28;20116;-54
2023/04/17 03:24:55;;;;;;;5.00;4.45;;;21.10;40.20;;;;;;5045711;28;20029;-56
2023/04/17 03:27:24;;;;;;;4.95;4.43;;;21.00;40.80;;;;;;5059445;28;20464;-53
2023/04/17 03:29:55;;;;;;;5.28;4.70;;;21.00;40.20;;;;;;5044909;28;20108;-53
2023/04/17 03:32:22;;;;;;;6.57;4.70;;;21.00;40.20;;;;;;5041318;28;20029;-54
2023/04/17 03:34:48;;;;;;;5.70;4.65;;;21.10;40.20;;;;;;5060528;28;20032;-53
2023/04/17 03:37:14;;;;;;;5.20;4.57;;;21.00;40.20;;;;;;5050988;28;20037;-51
2023/04/17 03:39:41;;;;;;;5.43;4.40;;;21.00;40.20;;;;;;5054146;28;20033;-51
2023/04/17 03:42:08;;;;;;;6.30;4.88;;;21.00;40.20;;;;;;5044926;28;20101;-53
2023/04/17 03:44:34;;;;;;;6.22;5.10;;;21.00;40.10;;;;;;5044811;28;20122;-52
2023/04/17 03:47:00;;;;;;;5.78;4.78;;;21.00;40.20;;;;;;5042329;28;20048;-53
2023/04/17 03:49:26;;;;;;;5.95;5.15;;;21.00;40.20;;;;;;5040904;28;20428;-54
2023/04/17 03:51:52;;;;;;;5.30;4.53;;;21.00;40.10;;;;;;5046556;28;20052;-53
2023/04/17 03:54:19;;;;;;;5.57;4.68;;;21.00;40.10;;;;;;5047600;28;20156;-54
2023/04/17 03:56:47;;;;;;;6.00;4.88;;;21.00;40.20;;;;;;5055814;28;20051;-51
2023/04/17 03:59:13;;;;;;;5.40;4.40;;;21.00;40.20;;;;;;5044756;28;20428;-54
2023/04/17 04:01:41;;;;;;;6.20;4.90;;;21.00;40.20;;;;;;5043866;28;20429;-52
2023/04/17 04:04:15;;;;;;;5.68;4.55;;;21.00;40.10;;;;;;5043754;28;20036;-51
2023/04/17 04:06:42;;;;;;;5.47;4.47;;;21.00;40.10;;;;;;5030240;28;20032;-54
2023/04/17 04:09:12;;;;;;;5.85;5.00;;;21.00;40.10;;;;;;5048061;28;20029;-54
2023/04/17 04:11:38;;;;;;;6.85;5.07;;;21.00;40.20;;;;;;5043883;28;20460;-53
2023/04/17 04:14:03;;;;;;;5.65;4.93;;;21.00;40.20;;;;;;5044986;28;20029;-51
2023/04/17 04:16:29;;;;;;;5.97;5.13;;;21.00;40.20;;;;;;5044085;28;20026;-53
2023/04/17 04:19:04;;;;;;;5.80;5.07;;;21.00;40.20;;;;;;5040522;28;20045;-53
2023/04/17 04:21:30;;;;;;;6.28;5.00;;;21.00;40.20;;;;;;5052681;28;20467;-54
2023/04/17 04:23:56;;;;;;;5.78;4.50;;;21.00;40.20;;;;;;5051159;28;20452;-51
2023/04/17 04:26:23;;;;;;;6.22;5.00;;;21.00;40.20;;;;;;5051450;28;20120;-53
2023/04/17 04:28:52;;;;;;;8.52;5.47;;;21.00;40.20;;;;;;5051443;28;20029;-53
2023/04/17 04:31:34;;;;;;;5.97;4.82;;;20.90;40.10;;;;;;5051544;28;20052;-52
2023/04/17 04:34:01;;;;;;;6.45;5.32;;;21.00;40.20;;;;;;5054565;28;20029;-49
2023/04/17 04:36:28;;;;;;;6.38;5.32;;;21.00;40.20;;;;;;5054533;28;20024;-55
2023/04/17 04:39:19;;;;;;;6.50;5.35;;;21.00;40.20;;;;;;5054310;28;20383;-54
2023/04/17 04:41:46;;;;;;;7.53;6.00;;;21.00;40.20;;;;;;5052707;28;20045;-54
2023/04/17 04:44:13;;;;;;;5.80;5.07;;;21.00;40.20;;;;;;5054469;28;20482;-49
2023/04/17 04:46:40;;;;;;;6.22;5.18;;;21.00;40.20;;;;;;5053864;28;20078;-55
2023/04/17 04:49:06;;;;;;;6.93;5.50;;;21.00;40.20;;;;;;5053957;28;20020;-55
2023/04/17 04:51:34;;;;;;;7.57;5.53;;;21.00;40.30;;;;;;5052478;28;20052;-51
2023/04/17 04:54:04;;;;;;;6.80;5.60;;;21.00;40.20;;;;;;5040707;28;20334;-57
2023/04/17 04:56:33;;;;;;;6.43;5.40;;;20.90;40.20;;;;;;5048399;28;20119;-51
2023/04/17 04:58:59;;;;;;;7.30;5.50;;;20.90;40.20;;;;;;5045069;28;20037;-55
2023/04/17 05:01:26;;;;;;;5.68;5.07;;;20.90;40.20;;;;;;5042706;28;20025;-53
2023/04/17 05:03:52;;;;;;;6.05;5.40;;;21.00;40.30;;;;;;5043742;28;20059;-55
2023/04/17 05:06:23;;;;;;;6.78;5.25;;;21.00;40.30;;;;;;5046313;28;20326;-54
2023/04/17 05:08:55;;;;;;;5.90;4.78;;;21.00;40.30;;;;;;5049217;28;20045;-52
2023/04/17 05:11:21;;;;;;;6.53;5.18;;;20.90;40.30;;;;;;5054395;28;20142;-52
2023/04/17 05:13:47;;;;;;;6.80;5.88;;;20.90;40.30;;;;;;5046133;28;20040;-53
2023/04/17 05:16:21;;;;;;;8.13;6.10;;;20.90;40.30;;;;;;5046042;28;20392;-52
2023/04/17 05:18:47;;;;;;;6.85;5.43;;;20.90;40.30;;;;;;5045024;28;20045;-53
2023/04/17 05:21:16;;;;;;;7.07;5.90;;;20.90;40.90;;;;;;5050810;28;20020;-54
2023/04/17 05:23:43;;;;;;;6.88;5.88;;;20.90;40.30;;;;;;5043489;28;20048;-51
2023/04/17 05:26:09;;;;;;;6.72;5.50;;;21.00;40.30;;;;;;5040986;28;20025;-55
2023/04/17 05:28:35;;;;;;;6.75;5.80;;;20.90;40.30;;;;;;5042346;28;20963;-53
2023/04/17 05:31:02;;;;;;;7.20;5.50;;;21.00;40.30;;;;;;5045822;28;20025;-56
2023/04/17 05:33:35;;;;;;;7.55;5.90;;;20.90;40.30;;;;;;5044008;28;20033;-52
2023/04/17 05:36:02;;;;;;;7.22;6.00;;;20.90;40.30;;;;;;5044422;28;20056;-55
2023/04/17 05:38:29;;;;;;;7.13;5.88;;;20.90;40.30;;;;;;5040848;28;20044;-50
2023/04/17 05:40:55;;;;;;;7.22;5.68;;;21.00;40.30;;;;;;5039709;28;20066;-56
2023/04/17 05:43:21;;;;;;;6.65;5.45;;;20.90;40.30;;;;;;5044585;28;20033;-54
2023/04/17 05:45:47;;;;;;;6.13;5.00;;;20.90;40.30;;;;;;5047561;28;20075;-54
2023/04/17 05:48:14;;;;;;;6.85;5.68;;;20.90;40.30;;;;;;5042845;28;20032;-53
2023/04/17 05:50:40;;;;;;;7.78;6.25;;;20.90;40.30;;;;;;5043673;28;20448;-53
2023/04/17 05:53:06;;;;;;;7.68;6.55;;;20.90;40.30;;;;;;5044226;28;20049;-52
2023/04/17 05:55:43;;;;;;;7.07;5.50;;;20.90;40.30;;;;;;5047550;28;20025;-52
2023/04/17 05:58:10;;;;;;;7.40;5.80;;;20.90;40.30;;;;;;5041931;28;20052;-53
2023/04/17 06:00:36;;;;;;;7.25;5.95;;;20.90;40.30;;;;;;5041039;28;20029;-55
2023/04/17 06:03:05;;;;;;;6.82;5.60;;;20.90;40.30;;;;;;5047637;28;20073;-54
2023/04/17 06:05:35;;;;;;;7.55;6.20;;;20.90;40.40;;;;;;5047431;28;20326;-51
2023/04/17 06:08:02;;;;;;;6.57;5.22;;;20.90;40.40;;;;;;5048017;28;20421;-55
2023/04/17 06:10:28;;;;;;;8.23;5.85;;;20.90;40.40;;;;;;5035428;28;20065;-56
2023/04/17 06:12:54;;;;;;;6.30;5.32;;;21.00;40.70;;;;;;5042824;28;20056;-55
2023/04/17 06:15:21;;;;;;;5.32;4.82;;;21.00;40.60;;;;;;5052822;28;20021;-56
2023/04/17 06:17:47;;;;;;;5.97;4.80;;;21.00;40.60;;;;;;5053078;28;20129;-53
2023/04/17 06:20:13;;;;;;;6.05;5.05;;;21.00;40.60;;;;;;5051776;28;20104;-53
2023/04/17 06:22:40;;;;;;;4.85;3.97;;;21.00;40.60;;;;;;5040355;28;20048;-55
2023/04/17 06:25:07;;;;;;;5.10;4.22;;;21.00;40.60;;;;;;5044993;28;20341;-56
2023/04/17 06:27:32;;;;;;;6.35;4.50;;;21.00;40.70;;;;;;5053735;28;20040;-52
2023/04/17 06:29:59;;;;;;;7.57;4.53;;;21.10;40.70;;;;;;5043226;28;20030;-51
2023/04/17 06:32:26;;;;;;;5.72;4.65;;;21.10;40.70;;;;;;5043457;28;20064;-52
2023/04/17 06:34:52;;;;;;;6.55;4.40;;;21.10;40.60;;;;;;5046812;28;20087;-55
2023/04/17 06:37:22;;;;;;;6.30;4.75;;;21.20;40.60;;;;;;5039595;28;20033;-52
2023/04/17 06:39:47;;;;;;;5.45;4.50;;;21.20;40.50;;;;;;5048996;28;20094;-54
2023/04/17 06:42:15;;;;;;;5.03;4.22;;;21.30;40.50;;;;;;5043780;28;20025;-53
2023/04/17 06:44:42;;;;;;;6.97;4.18;;;21.30;40.40;;;;;;5047565;28;20037;-50
2023/04/17 06:47:12;;;;;;;5.40;4.40;;;21.40;40.40;;;;;;5037175;28;20025;-51
2023/04/17 06:49:38;;;;;;;6.78;4.50;;;21.40;40.30;;;;;;5043369;28;20039;-52
2023/04/17 06:52:04;;;;;;;5.97;4.63;;;21.50;40.20;;;;;;5042685;28;20021;-54
2023/04/17 06:54:30;;;;;;;5.95;4.47;;;21.50;40.10;;;;;;5046447;28;20079;-53
2023/04/17 06:56:55;;;;;;;6.28;5.03;;;21.50;40.00;;;;;;5045110;28;20107;-53
2023/04/17 06:59:21;;;;;;;6.53;4.70;;;21.50;40.00;;;;;;5044138;28;20025;-56
2023/04/17 07:01:47;;;;;;;5.63;4.63;;;21.60;39.90;;;;;;5056926;28;20048;-56
2023/04/17 07:04:13;;;;;;;6.78;5.25;;;21.60;39.80;;;;;;5057767;28;20436;-52
2023/04/17 07:06:39;;;;;;;6.63;5.40;;;21.60;39.70;;;;;;5052247;28;20429;-54
2023/04/17 07:09:05;;;;;;;6.82;5.07;;;21.60;39.70;;;;;;5051986;28;20025;-51
2023/04/17 07:11:31;;;;;;;6.15;5.18;;;21.60;39.60;;;;;;5053039;28;20041;-52
2023/04/17 07:13:57;;;;;;;7.65;5.57;;;21.70;39.70;;;;;;5048413;28;20040;-54
2023/04/17 07:16:23;;;;;;;6.72;5.07;;;21.70;39.70;;;;;;5050410;28;20118;-52
2023/04/17 07:18:52;;;;;;;7.90;5.57;;;21.70;39.60;;;;;;5048876;28;20345;-56
2023/04/17 07:21:18;;;;;;;7.78;5.90;;;21.70;39.60;;;;;;5049048;28;20048;-55
2023/04/17 07:23:43;;;;;;;7.68;5.43;;;21.70;39.50;;;;;;5048180;28;20037;-55
2023/04/17 07:26:10;;;;;;;7.13;5.30;;;21.70;39.50;;;;;;5043244;28;20025;-51
2023/04/17 07:28:39;;;;;;;7.75;5.65;;;21.70;39.50;;;;;;5052328;28;20024;-53
2023/04/17 07:31:07;;;;;;;8.55;6.40;;;21.70;39.40;;;;;;5056769;28;20452;-53
2023/04/17 07:33:37;;;;;;;8.73;6.53;;;21.70;39.50;;;;;;5047491;28;20047;-53
2023/04/17 07:36:09;;;;;;;8.00;6.05;;;21.80;39.60;;;;;;5047551;28;20057;-55
2023/04/17 07:38:35;;;;;;;8.00;5.85;;;21.70;39.50;;;;;;5044540;28;20471;-50
2023/04/17 07:41:00;;;;;;;6.95;6.05;;;21.70;39.50;;;;;;5040367;28;20102;-55
2023/04/17 07:43:27;;;;;;;7.55;5.95;;;21.70;39.50;;;;;;5043188;28;20039;-54
2023/04/17 07:45:53;;;;;;;9.90;6.05;;;21.80;39.70;;;;;;5048889;28;20080;-49
2023/04/17 07:48:21;;;;;;;7.65;6.15;;;21.80;39.60;;;;;;5049832;28;20035;-52
2023/04/17 07:50:48;;;;;;;8.35;6.50;;;21.80;39.60;;;;;;5051724;28;20028;-52
2023/04/17 07:53:13;;;;;;;11.10;6.05;;;21.80;39.70;;;;;;5048562;28;20037;-50
2023/04/17 07:55:39;;;;;;;7.78;6.38;;;21.70;39.60;;;;;;5044846;28;20029;-53
2023/04/17 07:58:05;;;;;;;9.20;6.25;;;21.70;39.60;;;;;;5038465;28;20579;-55
2023/04/17 08:00:32;;;;;;;8.93;6.18;;;21.70;39.60;;;;;;5037890;28;20155;-52
2023/04/17 08:02:58;;;;;;;7.78;6.38;;;21.70;39.70;;;;;;5043437;28;20463;-49
2023/04/17 08:05:24;;;;;;;8.70;6.75;;;21.70;39.70;;;;;;5034096;28;20036;-52
2023/04/17 08:07:50;;;;;;;7.63;6.57;;;21.70;39.70;;;;;;5042487;28;21216;-52
2023/04/17 08:10:15;;;;;;;8.15;6.40;;;21.70;39.70;;;;;;5043346;28;20119;-54
2023/04/17 08:12:41;;;;;;;7.75;6.50;;;21.70;39.70;;;;;;5039751;28;20035;-52
2023/04/17 08:15:08;;;;;;;8.25;6.70;;;21.70;39.80;;;;;;5048159;28;20372;-53
2023/04/17 08:17:34;;;;;;;8.20;6.50;;;21.70;39.90;;;;;;5041480;28;20419;-56
2023/04/17 08:20:10;;;;;;;8.65;6.95;;;21.70;39.90;;;;;;5039402;28;20113;-54
2023/04/17 08:22:40;;;;;;;10.77;6.75;;;21.70;39.90;;;;;;5040886;28;20085;-56
2023/04/17 08:25:08;;;;;;;7.75;6.50;;;21.70;40.00;;;;;;5054149;28;20028;-54
2023/04/17 08:27:35;;;;;;;8.85;6.38;;;21.60;40.00;;;;;;5055822;28;20021;-58
2023/04/17 08:30:05;;;;;;;8.73;7.03;;;21.70;40.10;;;;;;5054876;28;20040;-56
2023/04/17 08:32:37;;;;;;;10.63;7.05;;;21.60;40.00;;;;;;5055500;28;20025;-55
2023/04/17 08:35:04;;;;;;;10.07;6.70;;;21.60;40.00;;;;;;5055975;28;20029;-54
2023/04/17 08:37:30;;;;;;;7.75;6.55;;;21.60;40.00;;;;;;5055695;28;20475;-56
2023/04/17 08:39:56;;;;;;;10.15;6.32;;;21.60;40.00;;;;;;5057302;28;20466;-57
2023/04/17 08:42:23;;;;;;;7.78;6.60;;;21.60;40.00;;;;;;5055651;28;20028;-55
2023/04/17 08:44:49;;;;;;;7.88;6.40;;;21.60;40.00;;;;;;5055740;28;20171;-55
2023/04/17 08:47:17;;;;;;;8.38;6.97;;;21.60;40.00;;;;;;5055469;28;20055;-56
2023/04/17 08:49:44;;;;;;;8.38;7.03;;;21.70;40.00;;;;;;5055188;28;20032;-55
2023/04/17 08:52:10;;;;;;;8.85;6.70;;;21.60;39.90;;;;;;5055720;28;20449;-56
2023/04/17 08:54:37;;;;;;;8.65;7.18;;;21.60;39.90;;;;;;5053950;28;20056;-54
2023/04/17 08:57:04;;;;;;;9.68;7.00;;;21.70;39.90;;;;;;5055151;28;20090;-56
2023/04/17 08:59:30;;;;;;;8.15;7.35;;;21.60;39.90;;;;;;5053481;28;20098;-57
2023/04/17 09:02:06;;;;;;;7.15;6.38;;;21.60;39.80;;;;;;5055559;28;20086;-56
2023/04/17 09:04:37;;;;;;;9.73;7.30;;;21.70;39.80;;;;;;5058105;28;20090;-55
2023/04/17 09:07:04;;;;;;;8.73;7.82;;;21.70;39.70;;;;;;5055021;28;20029;-49
2023/04/17 09:09:55;;;;;;;9.93;7.32;;;21.70;39.70;;;;;;5055532;28;20112;-54
2023/04/17 09:12:22;;;;;;;7.95;6.88;;;21.70;39.70;;;;;;5052852;28;20090;-55
2023/04/17 09:14:48;;;;;;;8.88;6.88;;;21.70;39.70;;;;;;5055230;28;20025;-56
2023/04/17 09:17:18;;;;;;;8.38;7.35;;;21.70;39.60;;;;;;5058142;28;20037;-51
2023/04/17 09:20:06;;;;;;;7.90;6.63;;;21.70;39.60;;;;;;5055209;28;20357;-54
2023/04/17 09:22:32;;;;;;;7.97;6.63;;;21.70;39.50;;;;;;5053297;28;20131;-56
2023/04/17 09:24:59;;;;;;;7.88;6.97;;;21.70;39.40;;;;;;5055055;28;20025;-55
2023/04/17 09:27:26;;;;;;;8.02;7.10;;;21.70;39.30;;;;;;5061515;28;20333;-55
2023/04/17 09:29:58;;;;;;;8.32;6.63;;;21.70;39.30;;;;;;5062050;28;20292;-54
2023/04/17 09:32:25;;;;;;;8.00;6.88;;;21.70;39.20;;;;;;5056386;28;20017;-53
2023/04/17 09:34:56;;;;;;;8.73;7.18;;;21.70;39.10;;;;;;5054570;28;20029;-53
2023/04/17 09:37:22;;;;;;;7.38;6.63;;;21.70;39.00;;;;;;5054941;28;20120;-55
2023/04/17 09:39:59;;;;;;;8.45;6.60;;;21.70;39.00;;;;;;5054308;28;20040;-55
2023/04/17 09:42:26;;;;;;;7.85;6.85;;;21.70;38.90;;;;;;5053466;28;20036;-53
2023/04/17 09:44:53;;;;;;;8.70;7.05;;;21.70;38.80;;;;;;5054233;28;20116;-55
2023/04/17 09:47:20;;;;;;;7.80;6.65;;;21.70;38.80;;;;;;5055938;28;20047;-55
2023/04/17 09:49:49;;;;;;;7.78;6.80;;;21.70;38.70;;;;;;5052925;28;20159;-57
2023/04/17 09:52:23;;;;;;;7.32;6.60;;;21.70;38.60;;;;;;5054407;28;20356;-53
2023/04/17 09:54:50;;;;;;;8.10;6.53;;;21.70;38.60;;;;;;5053226;28;20452;-49
2023/04/17 09:57:17;;;;;;;7.68;6.88;;;21.70;38.60;;;;;;5054432;28;20028;-51
2023/04/17 09:59:44;;;;;;;8.10;7.05;;;21.70;38.50;;;;;;5053457;28;20057;-55
2023/04/17 10:02:18;;;;;;;7.85;6.68;;;21.70;38.40;;;;;;5053936;28;21456;-52
2023/04/17 10:04:46;;;;;;;7.07;5.93;;;21.70;38.40;;;;;;5054481;28;20352;-55
2023/04/17 10:07:12;;;;;;;6.82;5.80;;;21.70;38.30;;;;;;5053790;28;20033;-52
2023/04/17 10:09:40;;;;;;;6.75;5.88;;;21.70;38.30;;;;;;5054549;28;20112;-56
2023/04/17 10:12:11;;;;;;;8.63;6.00;;;21.70;38.20;;;;;;5054283;28;20138;-53
2023/04/17 10:14:39;;;;;;;7.47;6.25;;;21.70;38.20;;;;;;5053864;28;20320;-51
2023/04/17 10:17:36;;;;;;;6.95;5.85;;;21.70;38.10;;;;;;5055677;28;20025;-52
2023/04/17 10:20:16;;;;;;;6.78;5.35;;;21.70;38.10;;;;;;5055754;28;20024;-53
2023/04/17 10:22:55;;;;;;;8.18;5.90;;;21.70;38.00;;;;;;5055718;28;20397;-50
2023/04/17 10:25:28;;;;;;;6.30;5.35;;;21.70;38.00;;;;;;5055541;28;20032;-55
2023/04/17 10:27:59;;;;;;;6.35;5.13;;;21.70;37.90;;;;;;5053739;28;20100;-50
2023/04/17 10:30:54;;;;;;;6.47;5.50;;;21.70;37.80;;;;;;5050547;28;20025;-54
2023/04/17 10:33:24;;;;;;;5.22;4.72;;;21.70;37.90;;;;;;5053368;28;20032;-55
2023/04/17 10:35:51;;;;;;;5.65;5.03;;;21.70;37.80;;;;;;5050591;28;20611;-53
2023/04/17 10:38:30;;;;;;;6.88;5.25;;;21.70;37.80;;;;;;5052208;28;20052;-54
2023/04/17 10:40:56;;;;;;;6.82;4.93;;;21.70;37.70;;;;;;5050833;28;20094;-56
2023/04/17 10:43:22;;;;;;;6.80;5.60;;;21.70;37.70;;;;;;5054325;28;20400;-50
2023/04/17 10:46:03;;;;;;;6.40;5.15;;;21.70;37.70;;;;;;5053147;28;20049;-52
2023/04/17 10:48:35;;;;;;;7.07;5.25;;;21.70;37.60;;;;;;5051975;28;20035;-56
2023/04/17 10:51:27;;;;;;;6.38;5.43;;;21.70;37.50;;;;;;5057536;28;20048;-51
2023/04/17 10:54:00;;;;;;;7.30;5.07;;;21.70;37.40;;;;;;5046830;28;20140;-51
2023/04/17 10:56:34;;;;;;;5.55;5.03;;;21.70;37.40;;;;;;5053771;28;20020;-53
2023/04/17 10:59:07;;;;;;;7.88;5.35;;;21.70;37.30;;;;;;5053246;28;20039;-54
2023/04/17 11:01:56;;;;;;;6.40;5.07;;;21.80;37.30;;;;;;5049567;28;20048;-55
2023/04/17 11:04:34;;;;;;;6.22;5.18;;;21.80;37.30;;;;;;5055162;28;20040;-54
2023/04/17 11:07:00;;;;;;;5.57;4.40;;;21.80;37.30;;;;;;5055110;28;20336;-56
2023/04/17 11:09:28;;;;;;;6.15;4.50;;;21.80;37.20;;;;;;5055447;28;20029;-52
2023/04/17 11:11:58;;;;;;;6.47;5.40;;;21.80;37.20;;;;;;5055448;28;20108;-51
2023/04/17 11:14:25;;;;;;;6.25;4.68;;;21.80;37.10;;;;;;5046557;28;20025;-48
2023/04/17 11:16:51;;;;;;;6.75;4.53;;;21.80;37.00;;;;;;5053811;28;20024;-51
2023/04/17 11:19:20;;;;;;;6.05;5.20;;;21.80;36.90;;;;;;5057837;28;20051;-54
2023/04/17 11:21:51;;;;;;;6.15;4.55;;;21.80;37.10;;;;;;5047262;28;20512;-49
2023/04/17 11:24:30;;;;;;;6.90;5.50;;;21.80;37.40;;;;;;5049676;28;20060;-50
2023/04/17 11:26:58;;;;;;;6.85;5.60;;;21.80;37.70;;;;;;5044784;28;20061;-52
2023/04/17 11:29:25;;;;;;;6.03;5.10;;;21.80;37.80;;;;;;5047462;28;20498;-52
2023/04/17 11:31:53;;;;;;;6.07;5.38;;;21.80;37.90;;;;;;5044198;28;20334;-54
2023/04/17 11:34:19;;;;;;;6.47;4.93;;;21.90;37.90;;;;;;5055388;28;20104;-56
2023/04/17 11:36:52;;;;;;;6.05;5.32;;;21.90;37.90;;;;;;5054876;28;20025;-54
2023/04/17 11:39:20;;;;;;;6.05;4.88;;;21.90;37.90;;;;;;5054752;28;20356;-54
2023/04/17 11:41:48;;;;;;;5.72;4.88;;;21.90;37.90;;;;;;5056951;28;20021;-54
2023/04/17 11:44:16;;;;;;;5.95;5.25;;;21.90;38.00;;;;;;5058600;28;20064;-53
2023/04/17 11:46:42;;;;;;;5.85;4.97;;;21.90;38.00;;;;;;5050842;28;20407;-52
2023/04/17 11:49:08;;;;;;;5.72;5.00;;;21.90;38.00;;;;;;5038629;28;20069;-56
2023/04/17 11:51:34;;;;;;;5.82;4.70;;;21.90;37.90;;;;;;5038460;28;20053;-54
2023/04/17 11:54:00;;;;;;;5.00;4.45;;;22.00;38.00;;;;;;5038623;28;20112;-49
2023/04/17 11:56:28;;;;;;;6.55;4.97;;;22.00;37.90;;;;;;5038924;28;20464;-51
2023/04/17 11:58:56;;;;;;;6.75;4.95;;;22.00;37.90;;;;;;5054024;28;20096;-51
2023/04/17 12:01:24;;;;;;;5.57;4.70;;;22.00;37.80;;;;;;5055886;28;20432;-53
2023/04/17 12:03:51;;;;;;;6.95;4.22;;;22.00;37.70;;;;;;5057199;28;20025;-54
2023/04/17 12:06:17;;;;;;;6.38;4.90;;;22.00;37.70;;;;;;5047435;28;20060;-52
2023/04/17 12:08:49;;;;;;;6.15;4.72;;;22.00;37.60;;;;;;5057734;28;20060;-52
2023/04/17 12:11:31;;;;;;;5.93;4.50;;;22.00;37.70;;;;;;5042946;28;20064;-51
2023/04/17 12:13:59;;;;;;;6.00;5.10;;;22.10;37.70;;;;;;5046473;28;20040;-53
2023/04/17 12:16:26;;;;;;;5.35;4.18;;;22.00;37.70;;;;;;5073341;28;20025;-53
2023/04/17 12:18:53;;;;;;;4.78;4.22;;;22.00;37.60;;;;;;5077658;28;20364;-52
2023/04/17 12:21:19;;;;;;;5.30;4.38;;;22.00;37.60;;;;;;5077762;28;20028;-51
2023/04/17 12:23:46;;;;;;;4.93;4.28;;;22.10;37.60;;;;;;5054473;28;20033;-49
2023/04/17 12:26:12;;;;;;;4.75;4.20;;;22.10;37.50;;;;;;5050838;28;20033;-52
2023/04/17 12:28:38;;;;;;;4.63;4.00;;;22.10;37.50;;;;;;5051886;28;20029;-53
2023/04/17 12:31:04;;;;;;;6.95;4.05;;;22.10;37.40;;;;;;5046351;28;20120;-50
2023/04/17 12:33:34;;;;;;;5.22;4.45;;;22.10;37.30;;;;;;5052230;28;20029;-53
2023/04/17 12:36:01;;;;;;;6.00;4.25;;;22.10;37.30;;;;;;5051716;28;20036;-53
2023/04/17 12:38:28;;;;;;;4.85;4.35;;;22.10;37.40;;;;;;5054674;28;20041;-51
2023/04/17 12:40:54;;;;;;;5.55;4.25;;;22.10;37.30;;;;;;5051964;28;20085;-54
2023/04/17 12:43:19;;;;;;;5.13;3.53;;;22.10;37.20;;;;;;5045355;28;20104;-52
2023/04/17 12:45:45;;;;;;;4.22;3.70;;;22.20;37.20;;;;;;5048809;28;20061;-49
2023/04/17 12:48:13;;;;;;;4.72;3.53;;;22.10;37.20;;;;;;5049745;28;20326;-52
2023/04/17 12:50:41;;;;;;;5.15;3.65;;;22.20;37.20;;;;;;5047923;28;20025;-50